sensor_id;sensor_type;location;lat;lon;timestamp;P1;durP1;ratioP1;P2;durP2;ratioP2
60006;SDS011;45863;50.336;3.536;2022-11-20T00:01:19;59.67;;;26.80;;
60006;SDS011;45863;50.336;3.536;2022-11-20T00:03:44;61.63;;;28.50;;
60006;SDS011;45863;50.336;3.536;2022-11-20T00:06:11;61.83;;;27.83;;
60006;SDS011;45863;50.336;3.536;2022-11-20T00:08:36;53.30;;;26.58;;
60006;SDS011;45863;50.336;3.536;2022-11-20T00:11:35;60.50;;;28.15;;
60006;SDS011;45863;50.336;3.536;2022-11-20T00:13:54;58.58;;;27.77;;
60006;SDS011;45863;50.336;3.536;2022-11-20T00:16:22;55.63;;;28.02;;
60006;SDS011;45863;50.336;3.536;2022-11-20T00:18:48;57.58;;;28.27;;
60006;SDS011;45863;50.336;3.536;2022-11-20T00:21:17;58.33;;;29.00;;
60006;SDS011;45863;50.336;3.536;2022-11-20T00:23:42;62.30;;;28.58;;
60006;SDS011;45863;50.336;3.536;2022-11-20T00:26:12;63.78;;;29.80;;
60006;SDS011;45863;50.336;3.536;2022-11-20T00:28:37;69.28;;;31.40;;
60006;SDS011;45863;50.336;3.536;2022-11-20T00:31:04;59.72;;;29.88;;
60006;SDS011;45863;50.336;3.536;2022-11-20T00:33:30;59.45;;;30.25;;
60006;SDS011;45863;50.336;3.536;2022-11-20T00:36:02;67.95;;;31.20;;
60006;SDS011;45863;50.336;3.536;2022-11-20T00:38:27;61.40;;;30.35;;
60006;SDS011;45863;50.336;3.536;2022-11-20T00:40:56;62.38;;;30.10;;
60006;SDS011;45863;50.336;3.536;2022-11-20T00:43:21;65.45;;;29.92;;
60006;SDS011;45863;50.336;3.536;2022-11-20T00:45:46;71.70;;;31.60;;
60006;SDS011;45863;50.336;3.536;2022-11-20T00:48:12;68.13;;;31.90;;
60006;SDS011;45863;50.336;3.536;2022-11-20T00:50:37;70.63;;;32.38;;
60006;SDS011;45863;50.336;3.536;2022-11-20T00:53:02;70.83;;;30.80;;
60006;SDS011;45863;50.336;3.536;2022-11-20T00:55:27;61.97;;;29.90;;
60006;SDS011;45863;50.336;3.536;2022-11-20T00:57:52;65.23;;;29.57;;
60006;SDS011;45863;50.336;3.536;2022-11-20T01:00:18;63.87;;;30.73;;
60006;SDS011;45863;50.336;3.536;2022-11-20T01:02:43;69.25;;;31.08;;
60006;SDS011;45863;50.336;3.536;2022-11-20T01:05:08;60.90;;;29.60;;
60006;SDS011;45863;50.336;3.536;2022-11-20T01:07:33;68.13;;;31.27;;
60006;SDS011;45863;50.336;3.536;2022-11-20T01:09:58;64.80;;;30.00;;
60006;SDS011;45863;50.336;3.536;2022-11-20T01:12:24;66.20;;;30.13;;
60006;SDS011;45863;50.336;3.536;2022-11-20T01:14:49;65.33;;;29.47;;
60006;SDS011;45863;50.336;3.536;2022-11-20T01:17:14;65.73;;;30.53;;
60006;SDS011;45863;50.336;3.536;2022-11-20T01:19:39;60.63;;;29.50;;
60006;SDS011;45863;50.336;3.536;2022-11-20T01:22:04;66.68;;;30.27;;
60006;SDS011;45863;50.336;3.536;2022-11-20T01:24:30;68.75;;;30.42;;
60006;SDS011;45863;50.336;3.536;2022-11-20T01:26:55;66.67;;;30.90;;
60006;SDS011;45863;50.336;3.536;2022-11-20T01:29:23;61.38;;;29.25;;
60006;SDS011;45863;50.336;3.536;2022-11-20T01:31:49;58.92;;;28.55;;
60006;SDS011;45863;50.336;3.536;2022-11-20T01:34:15;55.88;;;27.95;;
60006;SDS011;45863;50.336;3.536;2022-11-20T01:36:41;55.08;;;27.38;;
60006;SDS011;45863;50.336;3.536;2022-11-20T01:39:09;56.90;;;27.70;;
60006;SDS011;45863;50.336;3.536;2022-11-20T01:41:35;56.17;;;27.73;;
60006;SDS011;45863;50.336;3.536;2022-11-20T01:44:20;49.97;;;24.73;;
60006;SDS011;45863;50.336;3.536;2022-11-20T01:46:58;55.22;;;26.10;;
60006;SDS011;45863;50.336;3.536;2022-11-20T01:49:26;53.55;;;25.45;;
60006;SDS011;45863;50.336;3.536;2022-11-20T01:51:54;53.45;;;24.88;;
60006;SDS011;45863;50.336;3.536;2022-11-20T01:54:25;49.80;;;23.15;;
60006;SDS011;45863;50.336;3.536;2022-11-20T01:56:53;49.60;;;24.85;;
60006;SDS011;45863;50.336;3.536;2022-11-20T01:59:20;49.85;;;25.27;;
60006;SDS011;45863;50.336;3.536;2022-11-20T02:01:49;49.85;;;25.40;;
60006;SDS011;45863;50.336;3.536;2022-11-20T02:04:14;54.47;;;25.90;;
60006;SDS011;45863;50.336;3.536;2022-11-20T02:06:44;57.03;;;26.88;;
60006;SDS011;45863;50.336;3.536;2022-11-20T02:09:11;63.58;;;27.88;;
60006;SDS011;45863;50.336;3.536;2022-11-20T02:11:36;60.67;;;27.92;;
60006;SDS011;45863;50.336;3.536;2022-11-20T02:14:01;60.40;;;26.50;;
60006;SDS011;45863;50.336;3.536;2022-11-20T02:18:53;54.43;;;26.57;;
60006;SDS011;45863;50.336;3.536;2022-11-20T02:22:02;54.38;;;26.20;;
60006;SDS011;45863;50.336;3.536;2022-11-20T02:24:11;51.80;;;25.38;;
60006;SDS011;45863;50.336;3.536;2022-11-20T02:26:45;55.60;;;26.05;;
60006;SDS011;45863;50.336;3.536;2022-11-20T02:29:11;51.95;;;25.33;;
60006;SDS011;45863;50.336;3.536;2022-11-20T02:31:37;50.42;;;24.25;;
60006;SDS011;45863;50.336;3.536;2022-11-20T02:34:03;53.92;;;25.48;;
60006;SDS011;45863;50.336;3.536;2022-11-20T02:36:29;59.30;;;25.77;;
60006;SDS011;45863;50.336;3.536;2022-11-20T02:38:56;55.55;;;26.83;;
60006;SDS011;45863;50.336;3.536;2022-11-20T02:41:21;52.95;;;25.02;;
60006;SDS011;45863;50.336;3.536;2022-11-20T02:43:54;49.70;;;25.25;;
60006;SDS011;45863;50.336;3.536;2022-11-20T02:46:20;44.05;;;21.60;;
60006;SDS011;45863;50.336;3.536;2022-11-20T02:48:45;43.70;;;22.80;;
60006;SDS011;45863;50.336;3.536;2022-11-20T02:51:10;48.17;;;24.00;;
60006;SDS011;45863;50.336;3.536;2022-11-20T02:53:35;47.80;;;24.00;;
60006;SDS011;45863;50.336;3.536;2022-11-20T02:56:00;46.53;;;22.57;;
60006;SDS011;45863;50.336;3.536;2022-11-20T02:58:26;45.87;;;23.57;;
60006;SDS011;45863;50.336;3.536;2022-11-20T03:00:51;42.72;;;23.25;;
60006;SDS011;45863;50.336;3.536;2022-11-20T03:03:17;49.58;;;23.52;;
60006;SDS011;45863;50.336;3.536;2022-11-20T03:05:42;45.58;;;23.63;;
60006;SDS011;45863;50.336;3.536;2022-11-20T03:08:07;46.37;;;23.30;;
60006;SDS011;45863;50.336;3.536;2022-11-20T03:10:32;43.78;;;22.45;;
60006;SDS011;45863;50.336;3.536;2022-11-20T03:12:57;39.03;;;20.70;;
60006;SDS011;45863;50.336;3.536;2022-11-20T03:15:23;36.80;;;20.27;;
60006;SDS011;45863;50.336;3.536;2022-11-20T03:17:48;40.53;;;21.23;;
60006;SDS011;45863;50.336;3.536;2022-11-20T03:20:13;37.55;;;20.80;;
60006;SDS011;45863;50.336;3.536;2022-11-20T03:22:39;39.55;;;21.85;;
60006;SDS011;45863;50.336;3.536;2022-11-20T03:25:04;37.33;;;20.02;;
60006;SDS011;45863;50.336;3.536;2022-11-20T03:27:33;36.42;;;20.90;;
60006;SDS011;45863;50.336;3.536;2022-11-20T03:29:59;39.20;;;20.38;;
60006;SDS011;45863;50.336;3.536;2022-11-20T03:32:24;33.67;;;19.02;;
60006;SDS011;45863;50.336;3.536;2022-11-20T03:34:49;35.23;;;19.43;;
60006;SDS011;45863;50.336;3.536;2022-11-20T03:37:14;34.80;;;20.50;;
60006;SDS011;45863;50.336;3.536;2022-11-20T03:39:40;39.10;;;20.07;;
60006;SDS011;45863;50.336;3.536;2022-11-20T03:42:05;31.90;;;18.60;;
60006;SDS011;45863;50.336;3.536;2022-11-20T03:44:50;37.67;;;19.70;;
60006;SDS011;45863;50.336;3.536;2022-11-20T03:47:15;34.03;;;19.37;;
60006;SDS011;45863;50.336;3.536;2022-11-20T03:49:40;38.60;;;21.80;;
60006;SDS011;45863;50.336;3.536;2022-11-20T03:52:05;38.20;;;21.43;;
60006;SDS011;45863;50.336;3.536;2022-11-20T03:54:31;34.17;;;18.70;;
60006;SDS011;45863;50.336;3.536;2022-11-20T03:56:56;34.30;;;19.48;;
60006;SDS011;45863;50.336;3.536;2022-11-20T03:59:21;32.00;;;18.90;;
60006;SDS011;45863;50.336;3.536;2022-11-20T04:01:46;33.50;;;18.83;;
60006;SDS011;45863;50.336;3.536;2022-11-20T04:04:11;32.73;;;17.53;;
60006;SDS011;45863;50.336;3.536;2022-11-20T04:06:37;31.67;;;18.40;;
60006;SDS011;45863;50.336;3.536;2022-11-20T04:09:02;32.75;;;18.13;;
60006;SDS011;45863;50.336;3.536;2022-11-20T04:11:29;29.88;;;16.83;;
60006;SDS011;45863;50.336;3.536;2022-11-20T04:13:56;27.92;;;17.52;;
60006;SDS011;45863;50.336;3.536;2022-11-20T04:16:22;28.17;;;16.80;;
60006;SDS011;45863;50.336;3.536;2022-11-20T04:18:50;29.50;;;15.85;;
60006;SDS011;45863;50.336;3.536;2022-11-20T04:21:16;28.25;;;15.65;;
60006;SDS011;45863;50.336;3.536;2022-11-20T04:23:41;28.05;;;16.30;;
60006;SDS011;45863;50.336;3.536;2022-11-20T04:26:07;28.38;;;15.68;;
60006;SDS011;45863;50.336;3.536;2022-11-20T04:28:33;26.98;;;15.35;;
60006;SDS011;45863;50.336;3.536;2022-11-20T04:31:02;27.17;;;15.43;;
60006;SDS011;45863;50.336;3.536;2022-11-20T04:33:28;32.35;;;17.23;;
60006;SDS011;45863;50.336;3.536;2022-11-20T04:35:53;32.10;;;16.87;;
60006;SDS011;45863;50.336;3.536;2022-11-20T04:38:18;37.78;;;18.05;;
60006;SDS011;45863;50.336;3.536;2022-11-20T04:40:43;35.13;;;17.60;;
60006;SDS011;45863;50.336;3.536;2022-11-20T04:43:08;33.30;;;16.70;;
60006;SDS011;45863;50.336;3.536;2022-11-20T04:45:34;34.17;;;17.02;;
60006;SDS011;45863;50.336;3.536;2022-11-20T04:47:59;42.45;;;19.77;;
60006;SDS011;45863;50.336;3.536;2022-11-20T04:50:24;38.70;;;18.33;;
60006;SDS011;45863;50.336;3.536;2022-11-20T04:52:49;39.93;;;19.80;;
60006;SDS011;45863;50.336;3.536;2022-11-20T04:55:14;39.77;;;19.60;;
60006;SDS011;45863;50.336;3.536;2022-11-20T04:57:40;40.80;;;20.23;;
60006;SDS011;45863;50.336;3.536;2022-11-20T05:00:05;36.58;;;18.73;;
60006;SDS011;45863;50.336;3.536;2022-11-20T05:02:30;38.08;;;19.65;;
60006;SDS011;45863;50.336;3.536;2022-11-20T05:04:56;35.95;;;18.98;;
60006;SDS011;45863;50.336;3.536;2022-11-20T05:07:21;41.67;;;19.52;;
60006;SDS011;45863;50.336;3.536;2022-11-20T05:09:46;40.67;;;19.57;;
60006;SDS011;45863;50.336;3.536;2022-11-20T05:12:11;39.57;;;17.93;;
60006;SDS011;45863;50.336;3.536;2022-11-20T05:14:36;44.92;;;20.92;;
60006;SDS011;45863;50.336;3.536;2022-11-20T05:17:02;43.53;;;20.52;;
60006;SDS011;45863;50.336;3.536;2022-11-20T05:19:27;41.80;;;19.55;;
60006;SDS011;45863;50.336;3.536;2022-11-20T05:21:52;38.45;;;19.58;;
60006;SDS011;45863;50.336;3.536;2022-11-20T05:24:17;39.00;;;19.10;;
60006;SDS011;45863;50.336;3.536;2022-11-20T05:26:43;45.55;;;20.88;;
60006;SDS011;45863;50.336;3.536;2022-11-20T05:29:09;45.88;;;20.40;;
60006;SDS011;45863;50.336;3.536;2022-11-20T05:31:35;50.45;;;21.85;;
60006;SDS011;45863;50.336;3.536;2022-11-20T05:34:01;47.42;;;21.05;;
60006;SDS011;45863;50.336;3.536;2022-11-20T05:36:26;44.88;;;21.27;;
60006;SDS011;45863;50.336;3.536;2022-11-20T05:38:51;45.73;;;21.63;;
60006;SDS011;45863;50.336;3.536;2022-11-20T05:41:17;43.60;;;20.77;;
60006;SDS011;45863;50.336;3.536;2022-11-20T05:43:43;45.22;;;21.75;;
60006;SDS011;45863;50.336;3.536;2022-11-20T05:46:10;39.90;;;20.00;;
60006;SDS011;45863;50.336;3.536;2022-11-20T05:48:36;43.05;;;21.35;;
60006;SDS011;45863;50.336;3.536;2022-11-20T05:51:02;42.65;;;20.55;;
60006;SDS011;45863;50.336;3.536;2022-11-20T05:53:28;42.03;;;19.45;;
60006;SDS011;45863;50.336;3.536;2022-11-20T05:55:59;39.10;;;16.87;;
60006;SDS011;45863;50.336;3.536;2022-11-20T05:58:25;29.85;;;12.48;;
60006;SDS011;45863;50.336;3.536;2022-11-20T06:00:50;24.40;;;12.32;;
60006;SDS011;45863;50.336;3.536;2022-11-20T06:03:15;25.92;;;11.48;;
60006;SDS011;45863;50.336;3.536;2022-11-20T06:05:40;26.67;;;11.95;;
60006;SDS011;45863;50.336;3.536;2022-11-20T06:08:06;22.20;;;10.30;;
60006;SDS011;45863;50.336;3.536;2022-11-20T06:10:31;26.17;;;10.53;;
60006;SDS011;45863;50.336;3.536;2022-11-20T06:12:59;18.70;;;10.13;;
60006;SDS011;45863;50.336;3.536;2022-11-20T06:15:24;26.60;;;10.57;;
60006;SDS011;45863;50.336;3.536;2022-11-20T06:17:53;20.65;;;9.25;;
60006;SDS011;45863;50.336;3.536;2022-11-20T06:20:19;17.58;;;9.15;;
60006;SDS011;45863;50.336;3.536;2022-11-20T06:22:44;18.80;;;9.40;;
60006;SDS011;45863;50.336;3.536;2022-11-20T06:25:09;19.87;;;9.07;;
60006;SDS011;45863;50.336;3.536;2022-11-20T06:27:34;16.67;;;7.63;;
60006;SDS011;45863;50.336;3.536;2022-11-20T06:29:59;18.13;;;7.80;;
60006;SDS011;45863;50.336;3.536;2022-11-20T06:32:25;20.23;;;7.43;;
60006;SDS011;45863;50.336;3.536;2022-11-20T06:34:50;12.70;;;7.10;;
60006;SDS011;45863;50.336;3.536;2022-11-20T06:37:15;14.40;;;6.87;;
60006;SDS011;45863;50.336;3.536;2022-11-20T06:39:40;18.25;;;6.80;;
60006;SDS011;45863;50.336;3.536;2022-11-20T06:42:05;15.73;;;6.38;;
60006;SDS011;45863;50.336;3.536;2022-11-20T06:44:31;16.53;;;6.10;;
60006;SDS011;45863;50.336;3.536;2022-11-20T06:46:56;12.70;;;5.67;;
60006;SDS011;45863;50.336;3.536;2022-11-20T06:49:21;19.13;;;6.07;;
60006;SDS011;45863;50.336;3.536;2022-11-20T06:51:46;13.13;;;5.80;;
60006;SDS011;45863;50.336;3.536;2022-11-20T06:54:11;11.25;;;5.40;;
60006;SDS011;45863;50.336;3.536;2022-11-20T06:56:37;16.92;;;5.82;;
60006;SDS011;45863;50.336;3.536;2022-11-20T06:59:05;17.23;;;5.83;;
60006;SDS011;45863;50.336;3.536;2022-11-20T07:01:31;14.02;;;6.15;;
60006;SDS011;45863;50.336;3.536;2022-11-20T07:03:56;16.90;;;5.97;;
60006;SDS011;45863;50.336;3.536;2022-11-20T07:06:21;18.63;;;7.40;;
60006;SDS011;45863;50.336;3.536;2022-11-20T07:08:47;18.27;;;6.65;;
60006;SDS011;45863;50.336;3.536;2022-11-20T07:11:12;12.43;;;6.30;;
60006;SDS011;45863;50.336;3.536;2022-11-20T07:13:37;13.00;;;6.47;;
60006;SDS011;45863;50.336;3.536;2022-11-20T07:16:03;13.75;;;6.93;;
60006;SDS011;45863;50.336;3.536;2022-11-20T07:18:29;18.73;;;7.07;;
60006;SDS011;45863;50.336;3.536;2022-11-20T07:20:55;16.50;;;7.30;;
60006;SDS011;45863;50.336;3.536;2022-11-20T07:23:20;16.67;;;6.97;;
60006;SDS011;45863;50.336;3.536;2022-11-20T07:25:45;14.77;;;6.33;;
60006;SDS011;45863;50.336;3.536;2022-11-20T07:28:10;17.80;;;6.87;;
60006;SDS011;45863;50.336;3.536;2022-11-20T07:30:36;15.02;;;6.93;;
60006;SDS011;45863;50.336;3.536;2022-11-20T07:33:01;12.07;;;6.23;;
60006;SDS011;45863;50.336;3.536;2022-11-20T07:35:26;12.68;;;6.72;;
60006;SDS011;45863;50.336;3.536;2022-11-20T07:37:51;14.27;;;6.97;;
60006;SDS011;45863;50.336;3.536;2022-11-20T07:40:16;17.55;;;7.32;;
60006;SDS011;45863;50.336;3.536;2022-11-20T07:42:49;15.20;;;7.20;;
60006;SDS011;45863;50.336;3.536;2022-11-20T07:45:15;13.88;;;6.78;;
60006;SDS011;45863;50.336;3.536;2022-11-20T07:47:40;18.13;;;7.20;;
60006;SDS011;45863;50.336;3.536;2022-11-20T07:50:05;14.60;;;6.82;;
60006;SDS011;45863;50.336;3.536;2022-11-20T07:52:30;16.13;;;7.95;;
60006;SDS011;45863;50.336;3.536;2022-11-20T07:54:56;17.65;;;8.00;;
60006;SDS011;45863;50.336;3.536;2022-11-20T07:57:21;19.95;;;8.55;;
60006;SDS011;45863;50.336;3.536;2022-11-20T07:59:46;18.30;;;8.10;;
60006;SDS011;45863;50.336;3.536;2022-11-20T08:02:11;18.43;;;8.50;;
60006;SDS011;45863;50.336;3.536;2022-11-20T08:04:36;16.80;;;9.10;;
60006;SDS011;45863;50.336;3.536;2022-11-20T08:07:02;21.45;;;9.32;;
60006;SDS011;45863;50.336;3.536;2022-11-20T08:09:27;21.65;;;9.00;;
60006;SDS011;45863;50.336;3.536;2022-11-20T08:11:53;18.85;;;8.65;;
60006;SDS011;45863;50.336;3.536;2022-11-20T08:14:37;19.83;;;8.00;;
60006;SDS011;45863;50.336;3.536;2022-11-20T08:17:02;18.50;;;8.20;;
60006;SDS011;45863;50.336;3.536;2022-11-20T08:19:28;22.07;;;8.23;;
60006;SDS011;45863;50.336;3.536;2022-11-20T08:21:53;19.27;;;9.43;;
60006;SDS011;45863;50.336;3.536;2022-11-20T08:24:18;17.55;;;7.40;;
60006;SDS011;45863;50.336;3.536;2022-11-20T08:26:43;15.73;;;6.95;;
60006;SDS011;45863;50.336;3.536;2022-11-20T08:29:09;16.70;;;6.90;;
60006;SDS011;45863;50.336;3.536;2022-11-20T08:31:34;14.27;;;6.40;;
60006;SDS011;45863;50.336;3.536;2022-11-20T08:33:59;16.30;;;6.38;;
60006;SDS011;45863;50.336;3.536;2022-11-20T08:36:24;14.53;;;5.30;;
60006;SDS011;45863;50.336;3.536;2022-11-20T08:38:50;14.07;;;5.90;;
60006;SDS011;45863;50.336;3.536;2022-11-20T08:41:16;18.17;;;6.65;;
60006;SDS011;45863;50.336;3.536;2022-11-20T08:43:55;11.70;;;5.10;;
60006;SDS011;45863;50.336;3.536;2022-11-20T08:46:20;12.43;;;5.60;;
60006;SDS011;45863;50.336;3.536;2022-11-20T08:48:46;11.32;;;5.53;;
60006;SDS011;45863;50.336;3.536;2022-11-20T08:51:11;14.52;;;5.07;;
60006;SDS011;45863;50.336;3.536;2022-11-20T08:53:37;9.43;;;4.72;;
60006;SDS011;45863;50.336;3.536;2022-11-20T08:56:02;11.10;;;4.35;;
60006;SDS011;45863;50.336;3.536;2022-11-20T08:58:27;13.88;;;5.20;;
60006;SDS011;45863;50.336;3.536;2022-11-20T09:00:53;12.90;;;5.05;;
60006;SDS011;45863;50.336;3.536;2022-11-20T09:03:18;11.40;;;4.72;;
60006;SDS011;45863;50.336;3.536;2022-11-20T09:05:43;11.45;;;4.50;;
60006;SDS011;45863;50.336;3.536;2022-11-20T09:08:08;8.90;;;4.75;;
60006;SDS011;45863;50.336;3.536;2022-11-20T09:10:34;9.90;;;3.70;;
60006;SDS011;45863;50.336;3.536;2022-11-20T09:12:59;14.23;;;4.53;;
60006;SDS011;45863;50.336;3.536;2022-11-20T09:15:24;9.52;;;3.83;;
60006;SDS011;45863;50.336;3.536;2022-11-20T09:17:50;9.85;;;3.97;;
60006;SDS011;45863;50.336;3.536;2022-11-20T09:20:15;10.38;;;4.10;;
60006;SDS011;45863;50.336;3.536;2022-11-20T09:22:41;8.30;;;3.47;;
60006;SDS011;45863;50.336;3.536;2022-11-20T09:25:06;9.68;;;3.35;;
60006;SDS011;45863;50.336;3.536;2022-11-20T09:27:31;13.50;;;4.40;;
60006;SDS011;45863;50.336;3.536;2022-11-20T09:29:56;11.13;;;4.00;;
60006;SDS011;45863;50.336;3.536;2022-11-20T09:32:22;11.13;;;4.03;;
60006;SDS011;45863;50.336;3.536;2022-11-20T09:34:47;10.77;;;3.90;;
60006;SDS011;45863;50.336;3.536;2022-11-20T09:37:12;10.33;;;4.07;;
60006;SDS011;45863;50.336;3.536;2022-11-20T09:39:37;9.95;;;3.67;;
60006;SDS011;45863;50.336;3.536;2022-11-20T09:54:43;9.27;;;3.27;;
60006;SDS011;45863;50.336;3.536;2022-11-20T09:57:12;9.57;;;3.60;;
60006;SDS011;45863;50.336;3.536;2022-11-20T09:59:42;11.63;;;3.88;;
60006;SDS011;45863;50.336;3.536;2022-11-20T10:02:14;10.95;;;3.20;;
60006;SDS011;45863;50.336;3.536;2022-11-20T10:04:40;10.18;;;3.60;;
60006;SDS011;45863;50.336;3.536;2022-11-20T10:07:12;10.25;;;3.15;;
60006;SDS011;45863;50.336;3.536;2022-11-20T10:09:39;8.88;;;2.92;;
60006;SDS011;45863;50.336;3.536;2022-11-20T10:17:26;10.77;;;2.80;;
60006;SDS011;45863;50.336;3.536;2022-11-20T10:30:18;9.65;;;2.70;;
60006;SDS011;45863;50.336;3.536;2022-11-20T10:35:43;11.50;;;2.95;;
60006;SDS011;45863;50.336;3.536;2022-11-20T10:38:13;8.27;;;2.47;;
60006;SDS011;45863;50.336;3.536;2022-11-20T10:40:43;7.97;;;3.10;;
60006;SDS011;45863;50.336;3.536;2022-11-20T10:48:22;8.38;;;3.05;;
60006;SDS011;45863;50.336;3.536;2022-11-20T10:50:50;8.95;;;3.08;;
60006;SDS011;45863;50.336;3.536;2022-11-20T10:53:40;9.60;;;3.22;;
60006;SDS011;45863;50.336;3.536;2022-11-20T10:56:11;8.90;;;2.55;;
60006;SDS011;45863;50.336;3.536;2022-11-20T10:59:20;10.63;;;2.65;;
60006;SDS011;45863;50.336;3.536;2022-11-20T11:03:56;9.23;;;2.70;;
60006;SDS011;45863;50.336;3.536;2022-11-20T11:06:31;9.85;;;3.22;;
60006;SDS011;45863;50.336;3.536;2022-11-20T11:08:59;7.65;;;2.90;;
60006;SDS011;45863;50.336;3.536;2022-11-20T11:11:32;7.85;;;2.67;;
60006;SDS011;45863;50.336;3.536;2022-11-20T11:14:08;8.48;;;2.58;;
60006;SDS011;45863;50.336;3.536;2022-11-20T11:16:33;12.20;;;3.13;;
60006;SDS011;45863;50.336;3.536;2022-11-20T11:19:14;10.05;;;3.25;;
60006;SDS011;45863;50.336;3.536;2022-11-20T11:21:45;12.20;;;3.95;;
60006;SDS011;45863;50.336;3.536;2022-11-20T11:31:42;11.23;;;3.70;;
60006;SDS011;45863;50.336;3.536;2022-11-20T11:34:11;9.77;;;3.73;;
60006;SDS011;45863;50.336;3.536;2022-11-20T11:36:36;11.15;;;4.65;;
60006;SDS011;45863;50.336;3.536;2022-11-20T11:39:02;11.20;;;4.03;;
60006;SDS011;45863;50.336;3.536;2022-11-20T11:41:28;14.73;;;5.13;;
60006;SDS011;45863;50.336;3.536;2022-11-20T11:43:57;11.80;;;4.45;;
60006;SDS011;45863;50.336;3.536;2022-11-20T11:46:54;14.18;;;5.40;;
60006;SDS011;45863;50.336;3.536;2022-11-20T11:49:20;18.35;;;6.00;;
60006;SDS011;45863;50.336;3.536;2022-11-20T11:56:54;13.00;;;5.97;;
60006;SDS011;45863;50.336;3.536;2022-11-20T11:59:25;18.65;;;5.90;;
60006;SDS011;45863;50.336;3.536;2022-11-20T12:01:53;14.60;;;6.00;;
60006;SDS011;45863;50.336;3.536;2022-11-20T12:07:04;11.57;;;6.13;;
60006;SDS011;45863;50.336;3.536;2022-11-20T12:09:37;12.70;;;5.75;;
60006;SDS011;45863;50.336;3.536;2022-11-20T12:12:08;15.80;;;6.53;;
60006;SDS011;45863;50.336;3.536;2022-11-20T12:14:36;11.52;;;5.40;;
60006;SDS011;45863;50.336;3.536;2022-11-20T12:17:03;12.13;;;5.93;;
60006;SDS011;45863;50.336;3.536;2022-11-20T12:19:31;9.18;;;4.80;;
60006;SDS011;45863;50.336;3.536;2022-11-20T12:29:36;7.20;;;3.60;;
60006;SDS011;45863;50.336;3.536;2022-11-20T12:32:13;9.02;;;4.50;;
60006;SDS011;45863;50.336;3.536;2022-11-20T12:34:44;9.55;;;3.63;;
60006;SDS011;45863;50.336;3.536;2022-11-20T12:39:41;6.53;;;3.40;;
60006;SDS011;45863;50.336;3.536;2022-11-20T12:55:25;8.45;;;3.58;;
60006;SDS011;45863;50.336;3.536;2022-11-20T13:00:24;8.63;;;4.18;;
60006;SDS011;45863;50.336;3.536;2022-11-20T13:07:53;7.85;;;3.83;;
60006;SDS011;45863;50.336;3.536;2022-11-20T13:10:21;7.88;;;3.67;;
60006;SDS011;45863;50.336;3.536;2022-11-20T13:12:51;7.45;;;4.00;;
60006;SDS011;45863;50.336;3.536;2022-11-20T13:15:26;7.18;;;4.10;;
60006;SDS011;45863;50.336;3.536;2022-11-20T13:17:58;8.45;;;3.90;;
60006;SDS011;45863;50.336;3.536;2022-11-20T13:20:24;9.82;;;4.40;;
60006;SDS011;45863;50.336;3.536;2022-11-20T13:22:50;6.95;;;4.38;;
60006;SDS011;45863;50.336;3.536;2022-11-20T13:25:35;8.57;;;4.38;;
60006;SDS011;45863;50.336;3.536;2022-11-20T13:28:46;10.68;;;4.35;;
60006;SDS011;45863;50.336;3.536;2022-11-20T13:30:53;7.45;;;4.88;;
60006;SDS011;45863;50.336;3.536;2022-11-20T13:35:57;9.70;;;4.80;;
60006;SDS011;45863;50.336;3.536;2022-11-20T13:38:23;8.80;;;4.22;;
60006;SDS011;45863;50.336;3.536;2022-11-20T13:46:04;8.27;;;4.43;;
60006;SDS011;45863;50.336;3.536;2022-11-20T13:48:31;9.30;;;4.60;;
60006;SDS011;45863;50.336;3.536;2022-11-20T13:51:03;7.13;;;4.40;;
60006;SDS011;45863;50.336;3.536;2022-11-20T13:55:58;8.13;;;4.70;;
60006;SDS011;45863;50.336;3.536;2022-11-20T13:58:35;7.90;;;4.85;;
60006;SDS011;45863;50.336;3.536;2022-11-20T14:03:33;9.13;;;4.80;;
60006;SDS011;45863;50.336;3.536;2022-11-20T14:06:01;9.95;;;4.88;;
60006;SDS011;45863;50.336;3.536;2022-11-20T14:08:31;8.30;;;4.68;;
60006;SDS011;45863;50.336;3.536;2022-11-20T14:14:10;9.15;;;4.07;;
60006;SDS011;45863;50.336;3.536;2022-11-20T14:16:38;12.13;;;5.22;;
60006;SDS011;45863;50.336;3.536;2022-11-20T14:21:44;8.75;;;4.35;;
60006;SDS011;45863;50.336;3.536;2022-11-20T14:24:10;11.82;;;5.80;;
60006;SDS011;45863;50.336;3.536;2022-11-20T14:26:36;15.27;;;4.53;;
60006;SDS011;45863;50.336;3.536;2022-11-20T14:29:02;12.40;;;4.38;;
60006;SDS011;45863;50.336;3.536;2022-11-20T14:31:27;9.15;;;4.18;;
60006;SDS011;45863;50.336;3.536;2022-11-20T14:33:53;12.75;;;4.53;;
60006;SDS011;45863;50.336;3.536;2022-11-20T14:36:23;12.95;;;4.55;;
60006;SDS011;45863;50.336;3.536;2022-11-20T14:38:49;11.57;;;4.05;;
60006;SDS011;45863;50.336;3.536;2022-11-20T14:41:17;13.98;;;3.95;;
60006;SDS011;45863;50.336;3.536;2022-11-20T14:43:45;8.98;;;3.63;;
60006;SDS011;45863;50.336;3.536;2022-11-20T14:46:10;9.68;;;4.10;;
60006;SDS011;45863;50.336;3.536;2022-11-20T14:48:40;10.25;;;4.07;;
60006;SDS011;45863;50.336;3.536;2022-11-20T14:51:09;12.20;;;4.32;;
60006;SDS011;45863;50.336;3.536;2022-11-20T14:53:34;15.38;;;4.40;;
60006;SDS011;45863;50.336;3.536;2022-11-20T14:56:00;14.15;;;4.40;;
60006;SDS011;45863;50.336;3.536;2022-11-20T14:58:27;15.25;;;5.10;;
60006;SDS011;45863;50.336;3.536;2022-11-20T15:01:14;14.60;;;6.25;;
60006;SDS011;45863;50.336;3.536;2022-11-20T15:03:40;11.02;;;4.30;;
60006;SDS011;45863;50.336;3.536;2022-11-20T15:06:06;14.82;;;4.70;;
60006;SDS011;45863;50.336;3.536;2022-11-20T15:08:32;13.95;;;4.65;;
60006;SDS011;45863;50.336;3.536;2022-11-20T15:10:57;11.65;;;4.63;;
60006;SDS011;45863;50.336;3.536;2022-11-20T15:15:49;15.60;;;4.70;;
60006;SDS011;45863;50.336;3.536;2022-11-20T15:18:18;15.85;;;6.18;;
60006;SDS011;45863;50.336;3.536;2022-11-20T15:20:44;15.15;;;4.40;;
60006;SDS011;45863;50.336;3.536;2022-11-20T15:23:10;14.63;;;4.20;;
60006;SDS011;45863;50.336;3.536;2022-11-20T15:25:36;10.23;;;4.38;;
60006;SDS011;45863;50.336;3.536;2022-11-20T15:28:02;19.15;;;5.38;;
60006;SDS011;45863;50.336;3.536;2022-11-20T15:30:27;14.98;;;5.72;;
60006;SDS011;45863;50.336;3.536;2022-11-20T15:32:53;19.98;;;5.95;;
60006;SDS011;45863;50.336;3.536;2022-11-20T15:35:18;18.80;;;8.07;;
60006;SDS011;45863;50.336;3.536;2022-11-20T15:37:43;21.23;;;8.05;;
60006;SDS011;45863;50.336;3.536;2022-11-20T15:40:08;17.30;;;5.75;;
60006;SDS011;45863;50.336;3.536;2022-11-20T15:42:34;23.65;;;6.43;;
60006;SDS011;45863;50.336;3.536;2022-11-20T15:44:59;17.00;;;5.97;;
60006;SDS011;45863;50.336;3.536;2022-11-20T15:47:26;25.10;;;6.38;;
60006;SDS011;45863;50.336;3.536;2022-11-20T15:49:52;16.67;;;5.70;;
60006;SDS011;45863;50.336;3.536;2022-11-20T15:52:17;20.00;;;6.03;;
60006;SDS011;45863;50.336;3.536;2022-11-20T15:54:42;23.67;;;5.97;;
60006;SDS011;45863;50.336;3.536;2022-11-20T15:57:08;35.05;;;6.80;;
60006;SDS011;45863;50.336;3.536;2022-11-20T15:59:33;22.90;;;7.40;;
60006;SDS011;45863;50.336;3.536;2022-11-20T16:01:59;20.38;;;7.90;;
60006;SDS011;45863;50.336;3.536;2022-11-20T16:04:24;27.60;;;8.88;;
60006;SDS011;45863;50.336;3.536;2022-11-20T16:06:50;25.70;;;7.90;;
60006;SDS011;45863;50.336;3.536;2022-11-20T16:09:15;27.10;;;8.45;;
60006;SDS011;45863;50.336;3.536;2022-11-20T16:11:40;28.90;;;7.55;;
60006;SDS011;45863;50.336;3.536;2022-11-20T16:14:06;20.92;;;6.82;;
60006;SDS011;45863;50.336;3.536;2022-11-20T16:16:50;25.42;;;7.20;;
60006;SDS011;45863;50.336;3.536;2022-11-20T16:19:15;28.45;;;7.32;;